Aeroporto :
LOGIN :

Iscrizione | Disclaimer

   EN    FR    IT 

 










Sommario :    VFR   VFR Marginale   IFR   IFR Intensivo   IFR Molto Intensivo
Visibilità : 
Base nubi : 
>= 8 km
>= 3000ft
5 / 8 km
1000 / 3000 ft
1500m / 5 km
500 / 1000 ft
800 / 1500m
200 / 500 ft
< 800m
< 200 ft
Simboli :   Temporali  Nebbia  Neve Forte  Precipitazioni Forti  Vento > 20 kt
SIGMETs :   Varie  Temporali  Ghiacco  Turbolenza  Onda orograficha  Ceneri Vulcaniche







- Altitudine del aeroporto : 36 ft
- Codice IATA : GJL


DAAV - Jijel Ferhat Abbas

ULTIMO METAR :
  • 251000Z 36004KT 9999 FEW033 SCT200 20/10 Q1021

METARs OBSOLETI :
  • 250900Z 35002KT 9999 FEW033 SCT200 18/11 Q1021
  • 250800Z 33003KT CAVOK 16/11 Q1020

TAF TAF DAAV
Valido dal 25 a 06 ore il 26 a 06 ore UTC


250500Z 2506/2606 27008KT 8000 FEW023
PROB30
TEMPO 2509/2509 2000 BR BKN010
BECMG 2510/2512 36012KT
PROB30
TEMPO 2510/2518 FEW023TCU
PROB30
TEMPO 2514/2522 5000 -TSRA FEW020CB
Nessun NOTAM noto per questo aeroporto.



MetMap, La meteo Aeronautica in un colpo d'occhio ! - Copyright ORBIFLY Dicembre 2007 - Disclaimer

ORBIFLY MET'MAP TEAM :

Programmazione e sviluppo : Alexandra Zaïnal
Concezione e sviluppo : Baudouin d'Aumeries
Co-Programmazione e sviluppo : Marc-Olivier Méhu
Supporto tecnico e logistico : Manuel Goepfert
Aiuto per la traduzione : Arnaldo La Scala

Contatto : metmap@orbifly.com




FONTI E CREDITI :

   NOAA